createdAt,value
2017-11-27T00:01:43.815Z,5.43
2017-11-27T00:04:11.875Z,5.20
2017-11-27T00:06:39.927Z,6.22
2017-11-27T00:09:08.003Z,6.35
2017-11-27T00:11:36.057Z,6.28
2017-11-27T00:14:04.886Z,6.37
2017-11-27T00:16:32.950Z,5.20
2017-11-27T00:19:01.019Z,6.20
2017-11-27T00:21:29.074Z,6.68
2017-11-27T00:23:57.144Z,6.32
2017-11-27T00:26:25.224Z,5.70
2017-11-27T00:28:53.667Z,5.30
2017-11-27T00:31:21.734Z,4.93
2017-11-27T00:33:49.793Z,5.25
2017-11-27T00:36:17.839Z,5.00
2017-11-27T00:38:46.297Z,5.20
2017-11-27T00:41:14.388Z,5.90
2017-11-27T00:43:42.440Z,6.03
2017-11-27T00:46:10.497Z,4.85
2017-11-27T00:48:39.324Z,4.40
2017-11-27T00:51:07.397Z,5.12
2017-11-27T00:53:35.838Z,4.70
2017-11-27T00:56:04.686Z,4.57
2017-11-27T00:58:32.745Z,4.90
2017-11-27T01:01:00.786Z,4.80
2017-11-27T01:03:28.861Z,5.28
2017-11-27T01:05:57.316Z,4.82
2017-11-27T01:08:25.778Z,4.90
2017-11-27T01:10:53.831Z,4.45
2017-11-27T01:13:21.916Z,5.50
2017-11-27T01:15:49.946Z,4.50
2017-11-27T01:18:18.036Z,4.78
2017-11-27T01:20:46.074Z,4.45
2017-11-27T01:23:14.141Z,5.53
2017-11-27T01:25:42.976Z,4.85
2017-11-27T01:28:11.027Z,5.25
2017-11-27T01:30:39.082Z,5.00
2017-11-27T01:33:07.156Z,4.75
2017-11-27T01:35:35.200Z,4.70
2017-11-27T01:38:04.041Z,4.60
2017-11-27T01:40:32.113Z,4.28
2017-11-27T01:43:00.164Z,4.80
2017-11-27T01:45:28.239Z,4.32
2017-11-27T01:47:56.287Z,5.50
2017-11-27T01:50:25.103Z,4.95
2017-11-27T01:52:53.171Z,4.95
2017-11-27T01:55:21.620Z,4.30
2017-11-27T01:57:50.451Z,5.68
2017-11-27T02:00:18.504Z,5.28
2017-11-27T02:02:46.579Z,3.97
2017-11-27T02:05:14.688Z,4.68
2017-11-27T02:07:42.737Z,4.75
2017-11-27T02:10:11.196Z,4.00
2017-11-27T02:12:39.264Z,4.43
2017-11-27T02:15:08.095Z,4.00
2017-11-27T02:17:37.274Z,5.30
2017-11-27T02:20:06.102Z,4.37
2017-11-27T02:22:34.175Z,4.47
2017-11-27T02:25:02.221Z,4.20
2017-11-27T02:27:30.279Z,4.70
2017-11-27T02:29:58.719Z,4.60
2017-11-27T02:32:27.549Z,3.70
2017-11-27T02:34:55.612Z,3.85
2017-11-27T02:37:23.674Z,4.50
2017-11-27T02:39:51.719Z,4.45
2017-11-27T02:42:19.771Z,4.87
2017-11-27T02:44:47.843Z,4.10
2017-11-27T02:47:15.903Z,4.80
2017-11-27T02:49:43.985Z,5.68
2017-11-27T02:52:12.427Z,3.97
2017-11-27T02:54:40.907Z,4.03
2017-11-27T02:57:09.019Z,3.67
2017-11-27T02:59:37.836Z,4.47
2017-11-27T03:02:06.663Z,3.90
2017-11-27T03:04:35.495Z,3.92
2017-11-27T03:07:03.547Z,4.35
2017-11-27T03:09:32.367Z,4.07
2017-11-27T03:12:00.425Z,4.37
2017-11-27T03:14:28.477Z,3.45
2017-11-27T03:16:57.442Z,4.40
2017-11-27T03:19:25.552Z,4.72
2017-11-27T03:21:54.840Z,4.22
2017-11-27T03:24:23.602Z,4.85
2017-11-27T03:26:51.699Z,4.60
2017-11-27T03:29:20.485Z,5.40
2017-11-27T03:31:48.536Z,5.70
2017-11-27T03:34:17.371Z,4.93
2017-11-27T03:36:45.411Z,4.43
2017-11-27T03:39:13.470Z,5.03
2017-11-27T03:41:41.563Z,5.35
2017-11-27T03:44:10.353Z,5.07
2017-11-27T03:46:38.407Z,4.72
2017-11-27T03:49:06.472Z,5.32
2017-11-27T03:51:34.524Z,5.22
2017-11-27T03:54:03.378Z,4.93
2017-11-27T03:56:31.416Z,4.45
2017-11-27T03:58:59.467Z,4.55
2017-11-27T04:01:27.524Z,4.25
2017-11-27T04:03:56.343Z,3.92
2017-11-27T04:06:24.791Z,4.70
2017-11-27T04:08:53.620Z,3.90
2017-11-27T04:11:21.674Z,4.07
2017-11-27T04:13:49.747Z,3.37
2017-11-27T04:16:17.795Z,3.78
2017-11-27T04:18:46.624Z,3.53
2017-11-27T04:21:14.688Z,4.57
2017-11-27T04:23:42.734Z,3.70
2017-11-27T04:26:11.564Z,3.92
2017-11-27T04:28:40.748Z,4.32
2017-11-27T04:31:08.804Z,3.62
2017-11-27T04:33:36.855Z,5.28
2017-11-27T04:36:05.685Z,4.07
2017-11-27T04:38:33.726Z,3.42
2017-11-27T04:41:02.563Z,4.28
2017-11-27T04:43:30.607Z,4.32
2017-11-27T04:45:58.674Z,4.90
2017-11-27T04:48:26.728Z,4.70
2017-11-27T04:50:55.943Z,5.80
2017-11-27T04:53:23.987Z,5.47
2017-11-27T04:55:52.803Z,4.78
2017-11-27T04:58:20.859Z,5.55
2017-11-27T05:00:49.672Z,6.05
2017-11-27T05:03:18.505Z,6.15
2017-11-27T05:05:46.567Z,6.90
2017-11-27T05:08:14.632Z,5.40
2017-11-27T05:10:42.691Z,5.32
2017-11-27T05:13:10.763Z,5.53
2017-11-27T05:15:38.820Z,6.87
2017-11-27T05:18:07.642Z,6.07
2017-11-27T05:20:36.090Z,5.85
2017-11-27T05:23:04.145Z,5.75
2017-11-27T05:25:32.989Z,6.40
2017-11-27T05:28:01.052Z,7.00
2017-11-27T05:30:29.511Z,6.03
2017-11-27T05:32:57.564Z,6.10
2017-11-27T05:35:25.638Z,6.90
2017-11-27T05:37:54.453Z,7.80
2017-11-27T05:40:22.556Z,6.53
2017-11-27T05:42:51.003Z,8.05
2017-11-27T05:45:19.063Z,7.10
2017-11-27T05:47:47.129Z,7.70
2017-11-27T05:50:15.958Z,8.00
2017-11-27T05:52:44.039Z,9.18
2017-11-27T05:55:12.491Z,9.75
2017-11-27T05:57:41.372Z,9.68
2017-11-27T08:32:58.423Z,7.22
2017-11-27T09:29:38.299Z,8.40
2017-11-27T09:32:07.858Z,8.90
2017-11-27T10:13:58.628Z,12.23
2017-11-27T10:18:54.967Z,12.27
2017-11-27T10:21:23.023Z,11.10
2017-11-27T10:23:51.095Z,11.05
2017-11-27T10:26:19.915Z,12.73
2017-11-27T11:03:20.296Z,11.50
2017-11-27T12:04:56.935Z,5.62
2017-11-27T12:07:24.985Z,6.05
2017-11-27T12:09:53.443Z,5.72
2017-11-27T12:12:21.508Z,5.32
2017-11-27T12:14:49.573Z,5.65
2017-11-27T12:17:17.626Z,4.25
2017-11-27T12:19:45.691Z,4.15
2017-11-27T12:22:13.743Z,4.35
2017-11-27T12:24:41.807Z,3.28
2017-11-27T12:27:10.623Z,3.20
2017-11-27T12:29:38.679Z,3.30
2017-11-27T12:32:06.730Z,2.70
2017-11-27T12:34:35.186Z,2.45
2017-11-27T12:37:03.233Z,2.12
2017-11-27T12:39:31.283Z,2.30
2017-11-27T12:41:59.742Z,3.00
2017-11-27T12:44:28.931Z,3.50
2017-11-27T12:46:57.387Z,2.33
2017-11-27T12:49:25.443Z,2.72
2017-11-27T12:51:53.497Z,3.20
2017-11-27T12:54:21.568Z,1.85
2017-11-27T12:56:49.619Z,2.67
2017-11-27T13:26:24.228Z,2.42
2017-11-27T15:09:47.481Z,2.00
2017-11-27T15:19:40.263Z,2.15
2017-11-27T15:22:09.101Z,2.22
2017-11-27T15:34:28.044Z,2.40
2017-11-27T15:36:56.133Z,2.20
2017-11-27T15:39:24.172Z,2.22
2017-11-27T15:41:52.231Z,2.60
2017-11-27T15:44:21.436Z,2.00
2017-11-27T15:46:49.515Z,2.30
2017-11-27T15:49:17.728Z,2.62
2017-11-27T15:51:45.743Z,2.67
2017-11-27T15:54:14.570Z,2.97
2017-11-27T16:21:21.265Z,1.90
2017-11-27T16:23:49.324Z,2.10
2017-11-27T18:04:46.835Z,1.65
2017-11-27T18:07:15.653Z,1.85
2017-11-27T18:09:43.699Z,1.40
2017-11-27T18:12:12.522Z,1.62
2017-11-27T18:14:40.581Z,1.92
2017-11-27T18:17:08.634Z,1.95
2017-11-27T18:19:37.461Z,1.20
2017-11-27T18:22:05.520Z,1.83
2017-11-27T18:24:33.580Z,1.92
2017-11-27T18:27:01.660Z,1.55
2017-11-27T18:29:29.723Z,1.70
2017-11-27T18:31:57.769Z,1.62
2017-11-27T18:34:26.232Z,1.40
2017-11-27T18:36:54.283Z,1.67
2017-11-27T18:39:22.738Z,1.58
2017-11-27T18:41:50.811Z,1.60
2017-11-27T18:46:52.396Z,2.35
2017-11-27T18:49:20.460Z,2.00
2017-11-27T18:51:48.523Z,2.30
2017-11-27T18:54:16.960Z,1.92
2017-11-27T18:56:45.012Z,2.12
2017-11-27T18:59:13.584Z,2.10
2017-11-27T19:01:42.026Z,1.80
2017-11-27T19:04:10.939Z,2.00
2017-11-27T19:06:39.233Z,1.60
2017-11-27T19:09:08.011Z,2.12
2017-11-27T19:11:36.532Z,1.62
2017-11-27T19:14:05.035Z,1.58
2017-11-27T19:16:33.072Z,1.58
2017-11-27T19:19:01.627Z,1.75
2017-11-27T19:21:29.701Z,2.00
2017-11-27T19:23:58.587Z,2.30
2017-11-27T19:26:26.647Z,1.50
2017-11-27T19:28:55.090Z,2.83
2017-11-27T19:31:23.211Z,1.60
2017-11-27T19:33:51.288Z,2.25
2017-11-27T19:36:19.336Z,1.50
2017-11-27T19:38:47.388Z,1.98
2017-11-27T19:41:15.838Z,1.30
2017-11-27T19:43:44.291Z,1.50
2017-11-27T19:46:12.360Z,1.58
2017-11-27T19:48:40.433Z,1.60
2017-11-27T19:51:08.508Z,1.10
2017-11-27T19:53:36.583Z,1.70
2017-11-27T19:56:04.641Z,2.55
2017-11-27T19:58:33.743Z,1.33
2017-11-27T20:01:02.577Z,1.20
2017-11-27T20:03:31.025Z,1.92
2017-11-27T20:05:59.853Z,1.70
2017-11-27T20:08:28.387Z,1.85
2017-11-27T20:10:56.849Z,2.20
2017-11-27T20:13:25.299Z,2.20
2017-11-27T20:15:54.875Z,1.45
2017-11-27T20:18:23.687Z,1.33
2017-11-27T20:20:52.502Z,1.33
2017-11-27T20:23:21.024Z,1.20
2017-11-27T20:25:49.102Z,1.70
2017-11-27T20:28:17.259Z,1.35
2017-11-27T20:30:45.335Z,1.55
2017-11-27T20:33:13.406Z,1.20
2017-11-27T20:35:42.216Z,1.55
2017-11-27T20:38:10.376Z,1.40
2017-11-27T20:40:39.199Z,1.33
2017-11-27T20:43:07.250Z,1.40
2017-11-27T20:45:35.403Z,1.37
2017-11-27T20:48:03.843Z,1.40
2017-11-27T20:50:32.679Z,1.50
2017-11-27T20:53:01.163Z,1.35
2017-11-27T20:55:30.371Z,1.30
2017-11-27T20:57:58.420Z,1.40
2017-11-27T21:00:26.855Z,1.37
2017-11-27T21:02:54.936Z,1.58
2017-11-27T21:05:23.053Z,1.40
2017-11-27T21:07:51.548Z,1.50
2017-11-27T21:10:19.988Z,1.60
2017-11-27T21:12:48.500Z,1.48
2017-11-27T21:15:16.984Z,1.10
2017-11-27T21:17:45.871Z,1.20
2017-11-27T21:20:14.051Z,1.20
2017-11-27T21:22:42.908Z,1.30
2017-11-27T21:25:11.416Z,1.40
2017-11-27T21:27:39.855Z,1.62
2017-11-27T21:32:35.840Z,1.27
2017-11-27T21:35:04.255Z,1.10
2017-11-27T21:37:32.389Z,1.12
2017-11-27T21:40:00.884Z,2.37
2017-11-27T21:42:29.047Z,3.33
2017-11-27T21:44:57.103Z,1.48
2017-11-27T21:47:25.151Z,1.60
2017-11-27T21:49:53.972Z,1.75
2017-11-27T21:52:22.148Z,2.92
2017-11-27T21:54:50.964Z,2.15
2017-11-27T22:26:55.882Z,1.67
2017-11-27T22:29:24.707Z,1.23
2017-11-27T22:31:52.840Z,1.45
2017-11-27T22:34:20.911Z,1.62
2017-11-27T22:36:49.388Z,1.62
2017-11-27T22:39:17.446Z,1.67
2017-11-27T22:41:45.531Z,1.70
2017-11-27T22:44:13.607Z,1.15
2017-11-27T22:46:41.678Z,1.48
2017-11-27T23:28:37.021Z,1.00
2017-11-27T23:31:05.838Z,1.27
2017-11-27T23:33:33.912Z,0.90
2017-11-27T23:36:01.966Z,1.15
2017-11-27T23:38:30.063Z,1.10
2017-11-27T23:40:58.095Z,1.10
2017-11-27T23:43:26.914Z,0.90
2017-11-27T23:45:55.366Z,1.12
2017-11-27T23:48:24.285Z,1.33
2017-11-27T23:50:52.362Z,1.20
2017-11-27T23:53:20.414Z,1.60
2017-11-27T23:55:48.462Z,1.15
2017-11-27T23:58:17.287Z,1.20
